Time,TemperatureF,DewpointF,PressureIn,WindDirection,WindDirectionDegrees,WindSpeedMPH,WindSpeedGustMPH,Humidity,HourlyPrecipIn,Conditions,Clouds,dailyrainin,SoftwareType,DateUTC
2013-04-09 03:32:00,53.0,49.0,30.00,ENE,60,8.0,17.0,86,0.00,,,0.87,,2013-04-09 08:32:00,
2013-04-09 03:42:00,53.0,49.0,30.00,ENE,60,8.0,17.0,86,0.00,,,0.87,,2013-04-09 08:42:00,
2013-04-09 03:52:00,52.0,48.0,30.00,ENE,65,9.0,17.0,86,0.00,,,0.78,,2013-04-09 08:52:00,
2013-04-09 04:02:00,52.0,48.0,30.00,ENE,63,7.0,17.0,86,0.00,,,0.74,,2013-04-09 09:02:00,
2013-04-09 04:12:00,51.0,47.0,30.00,ENE,77,7.0,18.0,86,0.00,,,0.44,,2013-04-09 09:12:00,
2013-04-09 04:22:00,51.0,47.0,30.00,ENE,77,7.0,18.0,86,0.00,,,0.44,,2013-04-09 09:22:00,
2013-04-09 04:33:00,51.0,47.0,30.00,East,81,7.0,18.0,86,0.00,,,0.39,,2013-04-09 09:33:00,
2013-04-09 04:44:00,51.0,47.0,30.00,East,81,7.0,18.0,86,0.00,,,0.39,,2013-04-09 09:44:00,
2013-04-09 04:53:00,50.0,46.0,30.00,East,86,6.0,18.0,86,0.00,,,0.35,,2013-04-09 09:53:00,
2013-04-09 05:03:00,50.0,46.0,30.00,East,82,6.0,18.0,86,0.00,,,0.33,,2013-04-09 10:03:00,
2013-04-09 05:12:00,50.0,46.0,30.00,East,82,6.0,18.0,86,0.00,,,0.33,,2013-04-09 10:12:00,
2013-04-09 05:23:00,50.0,46.0,30.00,ENE,70,7.0,18.0,86,0.00,,,0.30,,2013-04-09 10:23:00,
2013-04-09 05:32:00,50.0,46.0,30.00,East,81,6.0,32.0,86,0.00,,,0.27,,2013-04-09 10:32:00,
2013-04-09 05:42:00,50.0,46.0,30.00,East,81,6.0,32.0,86,0.00,,,0.27,,2013-04-09 10:42:00,
2013-04-09 05:52:00,50.0,46.0,30.00,East,81,6.0,32.0,86,0.00,,,0.27,,2013-04-09 10:52:00,
2013-04-09 06:02:00,49.0,45.0,30.00,ESE,103,7.0,32.0,86,0.00,,,0.01,,2013-04-09 11:02:00,
2013-04-09 06:12:00,49.0,45.0,30.00,ESE,103,7.0,32.0,86,0.00,,,0.01,,2013-04-09 11:12:00,
2013-04-09 06:22:00,49.0,45.0,30.00,ENE,68,7.0,32.0,86,0.00,,,0.01,,2013-04-09 11:22:00,
2013-04-09 06:32:00,49.0,45.0,30.00,ENE,68,7.0,32.0,86,0.00,,,0.01,,2013-04-09 11:32:00,
2013-04-09 06:42:00,49.0,45.0,30.00,ENE,68,7.0,32.0,86,0.00,,,0.01,,2013-04-09 11:42:00,
2013-04-09 06:52:00,49.0,45.0,30.00,ENE,63,6.0,32.0,86,0.00,,,0.00,,2013-04-09 11:52:00,
2013-04-09 07:02:00,49.0,45.0,30.00,ENE,65,5.0,32.0,86,0.00,,,0.00,,2013-04-09 12:02:00,
2013-04-09 07:12:00,49.0,45.0,30.00,ENE,65,5.0,32.0,86,0.00,,,0.00,,2013-04-09 12:12:00,
2013-04-09 07:22:00,49.0,45.0,30.00,East,92,5.0,32.0,86,0.00,,,0.00,,2013-04-09 12:22:00,
2013-04-09 07:32:00,49.0,45.0,30.00,East,88,2.0,32.0,86,0.00,,,0.00,,2013-04-09 12:32:00,
2013-04-09 07:42:00,49.0,45.0,30.00,East,88,2.0,32.0,86,0.00,,,0.00,,2013-04-09 12:42:00,
2013-04-09 07:53:00,50.0,46.0,30.00,East,84,5.0,34.0,86,0.00,,,0.00,,2013-04-09 12:53:00,
2013-04-09 08:02:00,50.0,46.0,30.00,ENE,75,6.0,34.0,86,0.00,,,0.00,,2013-04-09 13:02:00,
2013-04-09 08:12:00,50.0,46.0,30.00,ENE,75,6.0,34.0,86,0.00,,,0.00,,2013-04-09 13:12:00,
2013-04-09 08:22:00,50.0,46.0,30.00,ENE,59,6.0,34.0,86,0.00,,,0.00,,2013-04-09 13:22:00,
2013-04-09 08:32:00,51.0,47.0,30.00,ENE,60,6.0,34.0,86,0.00,,,0.00,,2013-04-09 13:32:00,
2013-04-09 08:42:00,51.0,47.0,30.00,ENE,60,6.0,34.0,86,0.00,,,0.00,,2013-04-09 13:42:00,
2013-04-09 08:53:00,51.0,47.0,30.00,NE,56,5.0,34.0,86,0.00,,,0.00,,2013-04-09 13:53:00,
2013-04-09 09:03:00,52.0,48.0,30.00,ENE,60,7.0,34.0,86,0.00,,,0.00,,2013-04-09 14:03:00,
2013-04-09 09:12:00,52.0,48.0,30.00,ENE,60,7.0,34.0,86,0.00,,,0.00,,2013-04-09 14:12:00,
2013-04-09 09:22:00,52.0,48.0,30.00,NE,49,3.0,34.0,86,0.00,,,0.00,,2013-04-09 14:22:00,
2013-04-09 09:32:00,53.0,49.0,30.00,NE,54,8.0,34.0,86,0.00,,,0.00,,2013-04-09 14:32:00,
2013-04-09 09:42:00,53.0,49.0,30.00,NE,54,8.0,34.0,86,0.00,,,0.00,,2013-04-09 14:42:00,
2013-04-09 09:52:00,54.0,50.0,30.00,ENE,62,3.0,34.0,86,0.00,,,0.00,,2013-04-09 14:52:00,
2013-04-09 10:02:00,54.0,50.0,30.00,ENE,72,5.0,34.0,86,0.00,,,0.00,,2013-04-09 15:02:00,
2013-04-09 10:12:00,54.0,50.0,30.00,ENE,72,5.0,34.0,86,0.00,,,0.00,,2013-04-09 15:12:00,
2013-04-09 10:22:00,55.0,51.0,30.00,ENE,69,7.0,34.0,86,0.00,,,0.00,,2013-04-09 15:22:00,
2013-04-09 10:33:00,55.0,51.0,30.00,ENE,67,6.0,34.0,86,0.00,,,0.00,,2013-04-09 15:33:00,
2013-04-09 10:43:00,55.0,51.0,30.00,ENE,67,6.0,34.0,86,0.00,,,0.00,,2013-04-09 15:43:00,
2013-04-09 11:03:00,57.0,53.0,30.00,ENE,74,5.0,34.0,86,0.00,,,0.00,,2013-04-09 16:03:00,
2013-04-09 11:13:00,57.0,53.0,30.00,ENE,74,5.0,34.0,86,0.00,,,0.00,,2013-04-09 16:13:00,
2013-04-09 11:23:00,58.0,54.0,30.00,East,80,7.0,34.0,86,0.00,,,0.00,,2013-04-09 16:23:00,
2013-04-09 11:33:00,59.0,55.0,30.00,ENE,78,3.0,34.0,86,0.00,,,0.00,,2013-04-09 16:33:00,
2013-04-09 11:42:00,59.0,55.0,30.00,ENE,78,3.0,34.0,86,0.00,,,0.00,,2013-04-09 16:42:00,
2013-04-09 11:53:00,62.0,58.0,30.00,East,89,5.0,34.0,86,0.00,,,0.00,,2013-04-09 16:53:00,
2013-04-09 12:02:00,63.0,59.0,30.00,East,93,3.0,34.0,86,0.00,,,0.00,,2013-04-09 17:02:00,
2013-04-09 12:12:00,63.0,59.0,30.00,East,93,3.0,34.0,86,0.00,,,0.00,,2013-04-09 17:12:00,
2013-04-09 12:23:00,65.0,61.0,30.00,East,98,3.0,34.0,86,0.00,,,0.00,,2013-04-09 17:23:00,
2013-04-09 12:32:00,66.0,62.0,30.00,ENE,57,3.0,34.0,86,0.00,,,0.00,,2013-04-09 17:32:00,
2013-04-09 12:42:00,66.0,62.0,30.00,ENE,57,3.0,34.0,86,0.00,,,0.00,,2013-04-09 17:42:00,
2013-04-09 12:54:00,68.0,64.0,30.00,NNE,30,1.0,34.0,86,0.00,,,0.00,,2013-04-09 17:54:00,
2013-04-09 13:02:00,71.0,67.0,30.00,SW,215,10.0,34.0,86,0.00,,,0.00,,2013-04-09 18:02:00,
2013-04-09 13:12:00,71.0,67.0,30.00,SW,215,10.0,34.0,86,0.00,,,0.00,,2013-04-09 18:12:00,
2013-04-09 13:22:00,73.0,69.0,30.00,SW,223,8.0,34.0,86,0.00,,,0.00,,2013-04-09 18:22:00,
2013-04-09 13:32:00,73.0,69.0,30.00,SW,218,7.0,34.0,86,0.00,,,0.00,,2013-04-09 18:32:00,
2013-04-09 13:43:00,73.0,69.0,30.00,SW,218,7.0,34.0,86,0.00,,,0.00,,2013-04-09 18:43:00,
2013-04-09 13:53:00,73.0,69.0,30.00,SW,218,9.0,34.0,86,0.00,,,0.00,,2013-04-09 18:53:00,
2013-04-09 14:02:00,73.0,69.0,30.00,SW,218,9.0,34.0,86,0.00,,,0.00,,2013-04-09 19:02:00,
2013-04-09 14:12:00,73.0,69.0,30.00,SW,218,9.0,34.0,86,0.00,,,0.00,,2013-04-09 19:12:00,
2013-04-09 14:22:00,73.0,69.0,30.00,SW,218,9.0,34.0,86,0.00,,,0.00,,2013-04-09 19:22:00,
2013-04-09 14:32:00,75.0,71.0,30.00,SW,216,9.0,34.0,86,0.00,,,0.00,,2013-04-09 19:32:00,
2013-04-09 14:42:00,75.0,71.0,30.00,SW,216,9.0,34.0,86,0.00,,,0.00,,2013-04-09 19:42:00,
2013-04-09 14:52:00,77.0,72.0,30.00,SSW,196,9.0,34.0,86,0.00,,,0.00,,2013-04-09 19:52:00,
2013-04-09 15:02:00,77.0,72.0,30.00,South,182,5.0,34.0,86,0.00,,,0.00,,2013-04-09 20:02:00,
2013-04-09 15:12:00,77.0,72.0,30.00,SW,225,7.0,34.0,86,0.00,,,0.00,,2013-04-09 20:12:00,
2013-04-09 15:22:00,77.0,72.0,30.00,SW,225,7.0,34.0,86,0.00,,,0.00,,2013-04-09 20:22:00,
2013-04-09 15:33:00,79.0,74.0,30.00,WSW,244,5.0,34.0,86,0.00,,,0.00,,2013-04-09 20:33:00,
2013-04-09 15:52:00,76.0,72.0,30.00,SSW,211,7.0,34.0,86,0.00,,,0.00,,2013-04-09 20:52:00,
2013-04-09 16:02:00,75.0,71.0,30.00,SSW,193,1.0,34.0,86,0.00,,,0.00,,2013-04-09 21:02:00,
2013-04-09 16:13:00,75.0,71.0,30.00,SSW,193,1.0,34.0,86,0.00,,,0.00,,2013-04-09 21:13:00,
2013-04-09 16:33:00,63.0,59.0,30.00,NNE,25,7.0,34.0,86,0.00,,,0.00,,2013-04-09 21:33:00,
2013-04-09 16:42:00,63.0,59.0,30.00,NNE,25,7.0,34.0,86,0.00,,,0.00,,2013-04-09 21:42:00,
2013-04-09 16:53:00,61.0,57.0,30.00,NNE,31,8.0,34.0,86,0.00,,,0.00,,2013-04-09 21:53:00,
2013-04-09 17:03:00,62.0,58.0,30.00,NE,41,6.0,34.0,86,0.00,,,0.00,,2013-04-09 22:03:00,
2013-04-09 17:12:00,64.0,60.0,30.00,ENE,63,8.0,34.0,86,0.00,,,0.00,,2013-04-09 22:12:00,
2013-04-09 17:23:00,64.0,60.0,30.00,ENE,63,8.0,34.0,86,0.00,,,0.00,,2013-04-09 22:23:00,
2013-04-09 17:33:00,63.0,59.0,30.00,NE,46,7.0,34.0,86,0.00,,,0.00,,2013-04-09 22:33:00,
2013-04-09 17:42:00,63.0,59.0,30.00,NE,46,7.0,34.0,86,0.00,,,0.00,,2013-04-09 22:42:00,
2013-04-09 17:53:00,61.0,57.0,30.00,NE,45,6.0,34.0,86,0.00,,,0.00,,2013-04-09 22:53:00,
2013-04-09 18:03:00,60.0,56.0,30.00,NNE,33,7.0,34.0,86,0.00,,,0.00,,2013-04-09 23:03:00,
2013-04-09 18:12:00,57.0,53.0,30.00,NE,35,8.0,34.0,86,0.00,,,0.00,,2013-04-09 23:12:00,
2013-04-09 18:22:00,57.0,53.0,30.00,NE,35,8.0,34.0,86,0.00,,,0.00,,2013-04-09 23:22:00,
2013-04-09 18:32:00,55.0,51.0,30.00,NNE,28,7.0,34.0,86,0.00,,,0.00,,2013-04-09 23:32:00,
2013-04-09 18:42:00,55.0,51.0,30.00,NNE,28,7.0,34.0,86,0.00,,,0.00,,2013-04-09 23:42:00,
2013-04-09 18:53:00,54.0,50.0,30.00,NE,47,9.0,34.0,86,0.00,,,0.00,,2013-04-09 23:53:00,
2013-04-09 19:03:00,54.0,50.0,30.00,NE,47,9.0,34.0,86,0.00,,,0.00,,2013-04-10 00:03:00,
2013-04-09 19:12:00,54.0,50.0,30.00,NE,47,9.0,34.0,86,0.00,,,0.00,,2013-04-10 00:12:00,
2013-04-09 19:22:00,51.0,47.0,30.00,NE,41,7.0,34.0,86,0.00,,,0.00,,2013-04-10 00:22:00,
2013-04-09 19:32:00,50.0,46.0,30.00,NE,44,9.0,34.0,86,0.00,,,0.00,,2013-04-10 00:32:00,
2013-04-09 19:42:00,50.0,46.0,30.00,NE,44,9.0,34.0,86,0.00,,,0.00,,2013-04-10 00:42:00,
2013-04-09 19:52:00,49.0,45.0,30.00,NE,39,7.0,34.0,86,0.00,,,0.00,,2013-04-10 00:52:00,
2013-04-09 20:02:00,49.0,45.0,30.00,NE,37,8.0,34.0,86,0.00,,,0.00,,2013-04-10 01:02:00,
2013-04-09 20:12:00,48.0,44.0,30.00,NNE,33,8.0,34.0,86,0.00,,,0.00,,2013-04-10 01:12:00,
2013-04-09 20:23:00,48.0,44.0,30.00,NNE,33,8.0,34.0,86,0.00,,,0.00,,2013-04-10 01:23:00,
2013-04-09 20:32:00,47.0,43.0,30.00,NE,37,9.0,34.0,86,0.00,,,0.00,,2013-04-10 01:32:00,
2013-04-09 20:42:00,47.0,43.0,30.00,NE,37,9.0,34.0,86,0.00,,,0.00,,2013-04-10 01:42:00,
2013-04-09 20:53:00,47.0,43.0,30.00,NE,39,9.0,34.0,86,0.00,,,0.00,,2013-04-10 01:53:00,
2013-04-09 21:02:00,47.0,43.0,30.00,ENE,58,6.0,34.0,86,0.00,,,0.00,,2013-04-10 02:02:00,
2013-04-09 21:12:00,47.0,43.0,30.00,ENE,58,6.0,34.0,86,0.00,,,0.00,,2013-04-10 02:12:00,
2013-04-09 21:22:00,47.0,43.0,30.00,ENE,65,8.0,34.0,86,0.00,,,0.00,,2013-04-10 02:22:00,
2013-04-09 21:32:00,47.0,43.0,30.00,NE,51,12.0,34.0,86,0.00,,,0.00,,2013-04-10 02:32:00,
2013-04-09 21:42:00,47.0,43.0,30.00,NE,51,12.0,34.0,86,0.00,,,0.00,,2013-04-10 02:42:00,
2013-04-09 21:52:00,46.0,42.0,30.00,NE,50,12.0,34.0,86,0.00,,,0.00,,2013-04-10 02:52:00,
2013-04-09 22:02:00,45.0,41.0,30.00,NE,43,14.0,34.0,86,0.00,,,0.00,,2013-04-10 03:02:00,
2013-04-09 22:12:00,45.0,41.0,30.00,NE,43,14.0,34.0,86,0.00,,,0.00,,2013-04-10 03:12:00,
2013-04-09 22:22:00,45.0,41.0,30.00,ENE,59,7.0,34.0,86,0.00,,,0.00,,2013-04-10 03:22:00,
2013-04-09 22:32:00,45.0,41.0,30.00,NE,53,12.0,34.0,86,0.00,,,0.00,,2013-04-10 03:32:00,
2013-04-09 22:43:00,45.0,41.0,30.00,NE,53,12.0,34.0,86,0.00,,,0.00,,2013-04-10 03:43:00,
2013-04-09 22:53:00,44.0,40.0,30.00,NE,50,8.0,34.0,86,0.00,,,0.00,,2013-04-10 03:53:00,
2013-04-09 23:03:00,44.0,40.0,30.00,NE,55,10.0,34.0,86,0.00,,,0.00,,2013-04-10 04:03:00,
2013-04-09 23:13:00,44.0,40.0,30.00,NE,55,10.0,34.0,86,0.00,,,0.00,,2013-04-10 04:13:00,
2013-04-09 23:23:00,43.0,39.0,30.00,NE,51,12.0,34.0,86,0.00,,,0.00,,2013-04-10 04:23:00,
2013-04-09 23:33:00,43.0,39.0,30.00,NE,50,7.0,34.0,86,0.00,,,0.00,,2013-04-10 04:33:00,
2013-04-09 23:42:00,43.0,39.0,30.00,NE,50,7.0,34.0,86,0.00,,,0.00,,2013-04-10 04:42:00,
2013-04-09 23:53:00,43.0,39.0,30.00,NE,50,7.0,34.0,86,0.00,,,0.00,,2013-04-10 04:53:00,